Terminal Aerodrome Forecast
Issued by NWS Flagstaff, AZ

Home | Current Version | Previous Version | Text Only | Print | Product List | Glossary On
Versions: 1 2 3 4 5 6 7 8 9 10 11 12 13 14
715
FTUS45 KFGZ 270540
TAFFLG
TAF
KFLG 270540Z 2706/2806 VRB05KT P6SM SCT100 BKN200
     FM271700 05006KT P6SM OVC100 PROB30 2717/2723 P6SM -SHRA OVC050
     FM272300 06009KT P6SM SCT050 BKN090 PROB30 2723/2805 -SHRA
      BKN040=

USA.gov is the U.S. government's official web portal to all federal, state and local government web resources and services.